createdAt,value
2023-02-27T00:02:21.827Z,0.91
2023-02-27T00:04:52.030Z,0.87
2023-02-27T00:07:23.706Z,1.19
2023-02-27T00:09:54.417Z,1.03
2023-02-27T00:12:24.274Z,0.98
2023-02-27T00:14:54.449Z,0.83
2023-02-27T00:17:25.927Z,0.83
2023-02-27T00:19:57.837Z,0.78
2023-02-27T00:22:28.102Z,0.90
2023-02-27T00:24:57.857Z,0.80
2023-02-27T00:27:28.014Z,0.77
2023-02-27T00:29:58.062Z,0.66
2023-02-27T00:32:29.353Z,0.71
2023-02-27T00:34:59.148Z,0.66
2023-02-27T00:37:29.278Z,0.74
2023-02-27T00:39:59.992Z,0.64
2023-02-27T00:42:30.882Z,0.62
2023-02-27T00:45:00.798Z,0.65
2023-02-27T00:47:32.971Z,0.51
2023-02-27T00:50:02.988Z,0.62
2023-02-27T00:52:33.902Z,0.60
2023-02-27T00:55:03.738Z,0.52
2023-02-27T00:57:33.713Z,0.40
2023-02-27T01:00:05.204Z,0.33
2023-02-27T01:02:35.277Z,0.33
2023-02-27T01:05:06.382Z,0.53
2023-02-27T01:07:37.238Z,0.42
2023-02-27T01:10:09.152Z,0.29
2023-02-27T01:12:41.131Z,0.31
2023-02-27T01:15:12.460Z,0.17
2023-02-27T01:17:42.295Z,0.17
2023-02-27T01:20:14.413Z,0.20
2023-02-27T01:22:44.543Z,0.28
2023-02-27T01:25:15.261Z,0.23
2023-02-27T01:27:47.988Z,0.16
2023-02-27T01:30:18.774Z,0.11
2023-02-27T01:32:50.131Z,0.15
2023-02-27T01:35:19.676Z,0.17
2023-02-27T01:37:51.001Z,0.22
2023-02-27T01:40:20.679Z,0.05
2023-02-27T01:42:50.571Z,-0.09
2023-02-27T01:45:31.955Z,-0.09
2023-02-27T01:48:05.106Z,-0.18
2023-02-27T01:50:38.219Z,-0.15
2023-02-27T01:53:08.716Z,-0.24
2023-02-27T01:55:40.419Z,-0.09
2023-02-27T01:58:13.617Z,-0.01
2023-02-27T02:00:43.600Z,-0.21
2023-02-27T02:03:19.818Z,-0.30
2023-02-27T02:05:52.914Z,-0.24
2023-02-27T02:08:26.040Z,-0.27
2023-02-27T02:10:57.898Z,-0.27
2023-02-27T02:13:28.482Z,-0.19
2023-02-27T02:16:07.029Z,-0.27
2023-02-27T02:18:51.750Z,-0.16
2023-02-27T02:21:27.700Z,-0.29
2023-02-27T02:24:16.760Z,-0.42
2023-02-27T02:26:59.176Z,-0.41
2023-02-27T02:29:52.974Z,-0.44
2023-02-27T02:32:31.603Z,-0.63
2023-02-27T02:35:09.915Z,-0.63
2023-02-27T02:37:48.479Z,-0.63
2023-02-27T02:40:34.778Z,-0.61
2023-02-27T02:43:16.318Z,-0.51
2023-02-27T02:45:54.734Z,-0.56
2023-02-27T02:48:36.257Z,-0.55
2023-02-27T02:51:20.896Z,-0.64
2023-02-27T02:54:03.246Z,-0.58
2023-02-27T02:59:20.098Z,-0.65
2023-02-27T03:01:55.792Z,-0.71
2023-02-27T03:04:31.264Z,-0.65
2023-02-27T03:07:21.561Z,-0.65
2023-02-27T03:10:03.439Z,-0.59
2023-02-27T03:12:36.182Z,-0.46
2023-02-27T03:15:25.850Z,-0.53
2023-02-27T03:18:00.678Z,-0.45
2023-02-27T03:20:34.162Z,-0.69
2023-02-27T03:23:08.394Z,-0.77
2023-02-27T03:25:39.251Z,-0.74
2023-02-27T03:28:12.390Z,-0.63
2023-02-27T03:30:48.101Z,-0.74
2023-02-27T03:33:21.440Z,-0.72
2023-02-27T03:36:20.018Z,-0.66
2023-02-27T03:38:59.175Z,-0.69
2023-02-27T03:41:32.077Z,-0.88
2023-02-27T03:44:15.223Z,-0.91
2023-02-27T03:46:45.191Z,-0.95
2023-02-27T03:49:15.000Z,-0.83
2023-02-27T03:51:45.411Z,-0.83
2023-02-27T03:54:19.829Z,-0.89
2023-02-27T03:56:52.627Z,-0.89
2023-02-27T03:59:24.100Z,-0.94
2023-02-27T04:01:56.106Z,-0.98
2023-02-27T04:04:27.694Z,-0.97
2023-02-27T04:07:23.164Z,-1.03
2023-02-27T04:10:22.538Z,-1.10
2023-02-27T04:13:20.729Z,-1.11
2023-02-27T04:16:27.805Z,-1.07
2023-02-27T04:19:15.435Z,-0.96
2023-02-27T04:21:59.674Z,-1.20
2023-02-27T04:24:34.956Z,-1.25
2023-02-27T04:27:10.374Z,-1.22
2023-02-27T04:29:48.463Z,-1.31
2023-02-27T04:32:25.702Z,-1.08
2023-02-27T04:35:01.164Z,-1.09
2023-02-27T04:37:38.551Z,-1.04
2023-02-27T04:40:13.450Z,-1.22
2023-02-27T04:42:49.119Z,-1.22
2023-02-27T04:45:22.131Z,-1.14
2023-02-27T04:47:54.917Z,-1.14
2023-02-27T04:50:33.566Z,-1.37
2023-02-27T04:53:06.673Z,-1.43
2023-02-27T04:55:39.550Z,-1.35
2023-02-27T04:58:15.098Z,-1.41
2023-02-27T05:00:48.247Z,-1.47
2023-02-27T05:03:27.322Z,-1.44
2023-02-27T05:06:00.143Z,-1.47
2023-02-27T05:08:48.112Z,-1.42
2023-02-27T05:11:23.517Z,-1.35
2023-02-27T05:14:01.824Z,-1.35
2023-02-27T05:16:36.745Z,-1.42
2023-02-27T05:19:08.492Z,-1.52
2023-02-27T05:22:01.036Z,-1.42
2023-02-27T05:24:52.251Z,-1.47
2023-02-27T05:27:33.625Z,-1.48
2023-02-27T05:30:30.366Z,-1.54
2023-02-27T05:33:03.230Z,-1.76
2023-02-27T05:35:38.539Z,-1.76
2023-02-27T05:38:27.229Z,-1.66
2023-02-27T05:41:14.842Z,-1.65
2023-02-27T05:43:47.938Z,-1.60
2023-02-27T05:46:20.917Z,-1.54
2023-02-27T05:48:59.627Z,-1.49
2023-02-27T05:51:32.516Z,-1.50
2023-02-27T05:54:05.736Z,-1.62
2023-02-27T05:56:38.005Z,-1.60
2023-02-27T05:59:14.475Z,-1.52
2023-02-27T06:01:46.302Z,-1.67
2023-02-27T06:04:16.570Z,-1.57
2023-02-27T06:06:46.566Z,-1.49
2023-02-27T06:09:16.625Z,-1.58
2023-02-27T06:11:46.189Z,-1.59
2023-02-27T06:14:18.049Z,-1.32
2023-02-27T06:16:48.251Z,-1.44
2023-02-27T06:19:18.102Z,-1.40
2023-02-27T06:21:47.932Z,-1.34
2023-02-27T06:24:19.379Z,-1.25
2023-02-27T06:26:51.557Z,-1.45
2023-02-27T06:29:21.789Z,-1.27
2023-02-27T06:31:51.701Z,-1.53
2023-02-27T06:34:21.460Z,-1.59
2023-02-27T06:36:51.281Z,-1.59
2023-02-27T06:39:21.367Z,-1.49
2023-02-27T06:41:51.265Z,-1.58
2023-02-27T06:44:23.101Z,-1.58
2023-02-27T06:46:52.506Z,-1.45
2023-02-27T06:49:22.780Z,-1.45
2023-02-27T06:51:52.880Z,-1.46
2023-02-27T06:54:22.982Z,-1.48
2023-02-27T06:56:52.847Z,-1.48
2023-02-27T06:59:22.773Z,-1.22
2023-02-27T07:01:53.165Z,-1.29
2023-02-27T07:04:22.953Z,-1.27
2023-02-27T07:07:32.545Z,-1.27
2023-02-27T07:09:24.577Z,-1.15
2023-02-27T07:11:54.393Z,-1.15
2023-02-27T07:14:25.741Z,-1.27
2023-02-27T07:16:55.630Z,-1.10
2023-02-27T07:19:25.977Z,-1.14
2023-02-27T07:21:55.843Z,-1.12
2023-02-27T07:24:25.625Z,-1.02
2023-02-27T07:26:55.398Z,-1.04
2023-02-27T07:29:25.765Z,-0.95
2023-02-27T07:31:55.869Z,-0.88
2023-02-27T07:34:25.842Z,-0.78
2023-02-27T07:36:56.057Z,-0.75
2023-02-27T07:39:26.236Z,-0.20
2023-02-27T07:41:56.172Z,0.08
2023-02-27T07:44:25.762Z,0.41
2023-02-27T07:46:55.701Z,0.65
2023-02-27T07:49:25.562Z,1.07
2023-02-27T07:51:55.340Z,1.34
2023-02-27T07:54:25.270Z,1.54
2023-02-27T07:56:55.117Z,1.63
2023-02-27T07:59:26.383Z,1.84
2023-02-27T08:01:56.253Z,1.84
2023-02-27T08:04:26.134Z,2.17
2023-02-27T08:06:56.031Z,2.34
2023-02-27T08:09:25.790Z,2.58
2023-02-27T08:11:55.592Z,2.58
2023-02-27T08:14:25.503Z,2.77
2023-02-27T08:16:55.573Z,2.87
2023-02-27T08:19:25.355Z,3.00
2023-02-27T08:21:55.192Z,3.17
2023-02-27T08:24:25.201Z,3.19
2023-02-27T08:26:55.033Z,3.10
2023-02-27T08:29:25.362Z,3.10
2023-02-27T08:31:55.293Z,3.46
2023-02-27T08:34:25.857Z,3.09
2023-02-27T08:36:56.305Z,3.36
2023-02-27T08:39:25.845Z,3.36
2023-02-27T08:41:55.748Z,3.81
2023-02-27T08:44:25.732Z,3.62
2023-02-27T08:46:55.567Z,3.66
2023-02-27T08:49:25.810Z,3.65
2023-02-27T08:51:55.708Z,3.46
2023-02-27T08:54:25.504Z,3.72
2023-02-27T08:56:55.350Z,3.70
2023-02-27T08:59:26.777Z,3.77
2023-02-27T09:01:56.647Z,3.78
2023-02-27T09:04:26.658Z,3.75
2023-02-27T09:06:57.464Z,4.25
2023-02-27T09:09:27.391Z,4.20
2023-02-27T09:11:57.219Z,4.74
2023-02-27T09:14:27.264Z,4.55
2023-02-27T09:16:58.347Z,4.72
2023-02-27T09:19:28.343Z,5.17
2023-02-27T09:21:58.147Z,5.52
2023-02-27T09:24:28.193Z,5.45
2023-02-27T09:26:58.234Z,5.45
2023-02-27T09:29:28.358Z,5.88
2023-02-27T09:31:58.223Z,5.85
2023-02-27T09:34:28.332Z,5.62
2023-02-27T09:37:00.292Z,6.02
2023-02-27T09:39:30.273Z,6.21
2023-02-27T09:42:05.973Z,6.24
2023-02-27T09:44:48.059Z,6.44
2023-02-27T09:47:16.337Z,6.43
2023-02-27T09:50:10.053Z,6.54
2023-02-27T09:52:41.169Z,6.83
2023-02-27T09:55:17.011Z,6.58
2023-02-27T09:58:02.109Z,6.85
2023-02-27T10:00:34.710Z,7.00
2023-02-27T10:03:19.283Z,7.22
2023-02-27T10:06:09.990Z,7.22
2023-02-27T10:08:45.511Z,7.19
2023-02-27T10:11:18.456Z,7.23
2023-02-27T10:14:06.176Z,7.50
2023-02-27T10:16:36.129Z,7.39
2023-02-27T10:19:17.723Z,7.07
2023-02-27T10:21:50.547Z,7.38
2023-02-27T10:24:27.527Z,7.28
2023-02-27T10:26:59.456Z,6.88
2023-02-27T10:29:38.942Z,7.18
2023-02-27T10:32:21.596Z,7.59
2023-02-27T10:34:54.411Z,7.92
2023-02-27T10:37:27.248Z,8.00
2023-02-27T10:40:04.553Z,8.00
2023-02-27T10:42:41.613Z,8.04
2023-02-27T10:45:16.135Z,7.86
2023-02-27T10:47:45.713Z,7.67
2023-02-27T10:50:33.724Z,7.86
2023-02-27T10:53:06.312Z,7.60
2023-02-27T10:55:41.263Z,7.74
2023-02-27T10:58:14.377Z,7.82
2023-02-27T11:01:01.419Z,7.52
2023-02-27T11:03:41.542Z,7.52
2023-02-27T11:06:25.717Z,7.55
2023-02-27T11:09:16.335Z,7.91
2023-02-27T11:11:46.102Z,7.62
2023-02-27T11:14:30.811Z,8.01
2023-02-27T11:17:02.693Z,7.85
2023-02-27T11:19:38.596Z,8.00
2023-02-27T11:22:17.109Z,8.14
2023-02-27T11:24:48.267Z,7.98
2023-02-27T11:27:26.235Z,8.14
2023-02-27T11:30:04.839Z,8.07
2023-02-27T11:32:51.299Z,7.62
2023-02-27T11:35:33.088Z,7.70
2023-02-27T11:38:09.760Z,7.96
2023-02-27T11:40:42.656Z,7.73
2023-02-27T11:43:24.378Z,7.42
2023-02-27T11:46:20.352Z,7.68
2023-02-27T11:48:34.356Z,7.82
2023-02-27T11:51:27.948Z,8.13
2023-02-27T11:54:09.634Z,8.65
2023-02-27T11:56:42.478Z,8.93
2023-02-27T11:59:30.205Z,8.93
2023-02-27T12:02:19.464Z,9.02
2023-02-27T12:04:55.013Z,8.35
2023-02-27T12:07:39.651Z,8.77
2023-02-27T12:10:14.811Z,8.34
2023-02-27T12:12:53.170Z,8.08
2023-02-27T12:15:34.911Z,8.23
2023-02-27T12:18:14.166Z,8.66
2023-02-27T12:20:52.330Z,8.51
2023-02-27T12:23:48.868Z,8.26
2023-02-27T12:26:39.810Z,8.33
2023-02-27T12:29:30.548Z,8.53
2023-02-27T12:32:23.051Z,8.53
2023-02-27T12:34:56.048Z,8.59
2023-02-27T12:37:29.429Z,8.67
2023-02-27T12:40:10.969Z,8.67
2023-02-27T12:43:02.997Z,9.17
2023-02-27T12:45:49.582Z,8.89
2023-02-27T12:48:38.036Z,9.27
2023-02-27T12:51:27.419Z,8.70
2023-02-27T12:54:09.166Z,8.59
2023-02-27T12:56:47.685Z,8.75
2023-02-27T12:59:27.650Z,8.50
2023-02-27T13:02:28.836Z,8.33
2023-02-27T13:05:29.407Z,8.30
2023-02-27T13:08:17.012Z,7.81
2023-02-27T13:11:03.920Z,8.10
2023-02-27T13:13:38.971Z,8.02
2023-02-27T13:16:20.044Z,8.26
2023-02-27T13:19:04.639Z,8.31
2023-02-27T13:21:43.065Z,8.12
2023-02-27T13:24:24.086Z,8.06
2023-02-27T13:27:11.929Z,8.21
2023-02-27T13:29:47.748Z,7.82
2023-02-27T13:32:32.761Z,7.88
2023-02-27T13:35:02.568Z,7.73
2023-02-27T13:37:55.269Z,7.43
2023-02-27T13:40:39.865Z,7.43
2023-02-27T13:43:33.049Z,7.82
2023-02-27T13:46:05.109Z,8.04
2023-02-27T13:48:42.062Z,8.24
2023-02-27T13:51:42.052Z,8.24
2023-02-27T13:54:19.119Z,8.36
2023-02-27T13:56:51.364Z,8.64
2023-02-27T13:59:27.081Z,8.41
2023-02-27T14:02:06.619Z,9.09
2023-02-27T14:04:41.926Z,8.88
2023-02-27T14:07:18.023Z,8.88
2023-02-27T14:09:50.640Z,9.26
2023-02-27T14:12:45.363Z,9.14
2023-02-27T14:15:22.703Z,9.04
2023-02-27T14:17:59.610Z,8.74
2023-02-27T14:20:30.545Z,8.78
2023-02-27T14:23:21.732Z,8.93
2023-02-27T14:25:57.569Z,9.32
2023-02-27T14:28:38.768Z,9.03
2023-02-27T14:31:31.241Z,8.80
2023-02-27T14:34:08.162Z,8.83
2023-02-27T14:36:38.516Z,9.10
2023-02-27T14:39:08.285Z,9.98
2023-02-27T14:41:44.110Z,10.06
2023-02-27T14:44:24.993Z,9.55
2023-02-27T14:46:56.981Z,9.37
2023-02-27T14:49:32.342Z,9.00
2023-02-27T14:52:22.813Z,8.80
2023-02-27T14:54:53.594Z,8.95
2023-02-27T14:57:29.598Z,8.34
2023-02-27T14:59:59.544Z,7.56
2023-02-27T15:02:32.368Z,7.56
2023-02-27T15:05:08.108Z,7.32
2023-02-27T15:07:37.795Z,7.51
2023-02-27T15:10:13.584Z,7.78
2023-02-27T15:12:43.565Z,8.25
2023-02-27T15:15:18.926Z,8.25
2023-02-27T15:17:52.552Z,8.30
2023-02-27T15:20:30.844Z,8.02
2023-02-27T15:23:02.481Z,7.90
2023-02-27T15:25:37.836Z,7.52
2023-02-27T15:28:15.346Z,7.44
2023-02-27T15:30:53.448Z,7.60
2023-02-27T15:33:26.283Z,7.70
2023-02-27T15:35:56.889Z,7.88
2023-02-27T15:38:29.600Z,7.97
2023-02-27T15:41:01.329Z,7.64
2023-02-27T15:43:32.289Z,7.30
2023-02-27T15:46:04.363Z,7.19
2023-02-27T15:48:34.362Z,7.46
2023-02-27T15:51:04.906Z,7.34
2023-02-27T15:53:36.558Z,7.29
2023-02-27T15:56:11.004Z,7.00
2023-02-27T15:58:43.929Z,7.36
2023-02-27T16:01:23.101Z,7.05
2023-02-27T16:03:55.978Z,7.42
2023-02-27T16:06:34.430Z,7.11
2023-02-27T16:09:09.590Z,7.11
2023-02-27T16:11:39.260Z,7.26
2023-02-27T16:14:45.821Z,6.92
2023-02-27T16:17:27.258Z,7.27
2023-02-27T16:20:01.270Z,6.81
2023-02-27T16:22:30.813Z,6.82
2023-02-27T16:25:12.022Z,6.56
2023-02-27T16:27:46.265Z,6.95
2023-02-27T16:30:17.762Z,6.77
2023-02-27T16:32:47.451Z,6.62
2023-02-27T16:35:23.539Z,6.51
2023-02-27T16:37:53.569Z,6.33
2023-02-27T16:40:25.343Z,6.44
2023-02-27T16:42:55.530Z,6.62
2023-02-27T16:45:31.022Z,6.53
2023-02-27T16:48:03.014Z,6.28
2023-02-27T16:50:38.254Z,6.31
2023-02-27T16:53:09.000Z,6.48
2023-02-27T16:55:40.924Z,6.19
2023-02-27T16:58:16.963Z,6.28
2023-02-27T17:00:47.097Z,6.40
2023-02-27T17:03:16.896Z,6.50
2023-02-27T17:05:48.612Z,6.11
2023-02-27T17:08:19.483Z,5.92
2023-02-27T17:10:49.544Z,5.83
2023-02-27T17:13:19.306Z,5.87
2023-02-27T17:15:49.373Z,5.86
2023-02-27T17:18:19.177Z,5.59
2023-02-27T17:20:50.703Z,5.91
2023-02-27T17:23:23.529Z,6.04
2023-02-27T17:25:55.255Z,6.09
2023-02-27T17:28:25.312Z,5.78
2023-02-27T17:30:55.122Z,5.78
2023-02-27T17:33:24.911Z,5.61
2023-02-27T17:35:57.468Z,5.66
2023-02-27T17:38:27.020Z,5.68
2023-02-27T17:40:56.905Z,5.58
2023-02-27T17:43:27.415Z,5.72
2023-02-27T17:45:57.788Z,5.72
2023-02-27T17:48:27.880Z,5.74
2023-02-27T17:51:09.800Z,5.54
2023-02-27T17:53:39.540Z,5.61
2023-02-27T17:56:12.360Z,5.53
2023-02-27T17:58:44.059Z,5.21
2023-02-27T18:01:18.853Z,5.24
2023-02-27T18:03:50.178Z,4.96
2023-02-27T18:06:20.990Z,4.98
2023-02-27T18:08:50.596Z,5.04
2023-02-27T18:11:23.122Z,4.98
2023-02-27T18:13:53.068Z,5.08
2023-02-27T18:16:23.158Z,4.82
2023-02-27T18:18:52.925Z,4.94
2023-02-27T18:21:24.525Z,5.03
2023-02-27T18:23:54.392Z,4.94
2023-02-27T18:26:30.478Z,4.94
2023-02-27T18:29:07.331Z,5.15
2023-02-27T18:31:40.390Z,4.86
2023-02-27T18:34:11.845Z,4.58
2023-02-27T18:36:41.768Z,4.58
2023-02-27T18:39:11.362Z,4.53
2023-02-27T18:41:41.279Z,4.52
2023-02-27T18:44:12.255Z,4.45
2023-02-27T18:46:42.226Z,4.45
2023-02-27T18:49:12.199Z,4.26
2023-02-27T18:51:42.273Z,4.05
2023-02-27T18:54:15.550Z,3.99
2023-02-27T18:56:45.293Z,4.01
2023-02-27T18:59:15.128Z,4.04
2023-02-27T19:01:44.694Z,3.89
2023-02-27T19:04:14.388Z,4.05
2023-02-27T19:06:44.287Z,3.91
2023-02-27T19:09:20.394Z,3.92
2023-02-27T19:11:50.572Z,4.10
2023-02-27T19:14:20.046Z,3.65
2023-02-27T19:16:50.853Z,3.73
2023-02-27T19:19:20.800Z,3.63
2023-02-27T19:21:50.592Z,3.53
2023-02-27T19:24:20.817Z,3.39
2023-02-27T19:26:53.363Z,3.24
2023-02-27T19:29:22.882Z,3.15
2023-02-27T19:31:52.391Z,3.18
2023-02-27T19:34:22.300Z,3.11
2023-02-27T19:36:52.047Z,3.38
2023-02-27T19:39:22.865Z,3.47
2023-02-27T19:41:52.791Z,3.24
2023-02-27T19:44:22.281Z,3.07
2023-02-27T19:46:53.043Z,3.18
2023-02-27T19:49:22.921Z,3.10
2023-02-27T19:51:52.741Z,2.95
2023-02-27T19:54:22.493Z,3.11
2023-02-27T19:56:54.219Z,2.98
2023-02-27T19:59:24.684Z,3.04
2023-02-27T20:01:54.870Z,3.32
2023-02-27T20:04:24.612Z,3.37
2023-02-27T20:06:54.918Z,3.38
2023-02-27T20:09:26.392Z,3.00
2023-02-27T20:11:58.345Z,3.25
2023-02-27T20:14:28.814Z,3.13
2023-02-27T20:16:58.712Z,3.08
2023-02-27T20:19:28.751Z,2.94
2023-02-27T20:21:58.538Z,2.83
2023-02-27T20:24:28.066Z,2.83
2023-02-27T20:26:59.294Z,2.82
2023-02-27T20:29:29.475Z,2.82
2023-02-27T20:32:00.107Z,2.73
2023-02-27T20:34:29.873Z,2.74
2023-02-27T20:37:00.461Z,2.51
2023-02-27T20:39:30.347Z,2.70
2023-02-27T20:42:00.745Z,2.66
2023-02-27T20:44:30.610Z,2.58
2023-02-27T20:47:00.194Z,2.49
2023-02-27T20:49:30.027Z,2.38
2023-02-27T20:51:59.860Z,2.48
2023-02-27T20:54:32.852Z,2.30
2023-02-27T20:57:02.617Z,2.52
2023-02-27T20:59:32.966Z,2.37
2023-02-27T21:02:04.354Z,2.25
2023-02-27T21:04:43.494Z,2.21
2023-02-27T21:07:16.097Z,2.15
2023-02-27T21:09:46.002Z,2.09
2023-02-27T21:12:15.710Z,2.17
2023-02-27T21:14:46.514Z,2.16
2023-02-27T21:17:16.450Z,1.94
2023-02-27T21:19:46.371Z,1.99
2023-02-27T21:22:17.053Z,1.93
2023-02-27T21:24:48.430Z,1.86
2023-02-27T21:27:21.963Z,1.90
2023-02-27T21:29:52.093Z,1.91
2023-02-27T21:32:21.941Z,1.85
2023-02-27T21:34:51.789Z,2.01
2023-02-27T21:37:21.608Z,1.87
2023-02-27T21:39:55.971Z,1.77
2023-02-27T21:42:25.593Z,1.79
2023-02-27T21:44:55.676Z,1.70
2023-02-27T21:47:25.571Z,1.60
2023-02-27T21:49:55.407Z,1.63
2023-02-27T21:52:25.214Z,1.75
2023-02-27T21:54:56.322Z,1.87
2023-02-27T21:57:26.122Z,1.75
2023-02-27T21:59:55.914Z,1.53
2023-02-27T22:02:25.604Z,1.58
2023-02-27T22:04:55.435Z,1.43
2023-02-27T22:07:25.190Z,1.65
2023-02-27T22:09:55.001Z,1.47
2023-02-27T22:12:25.996Z,1.39
2023-02-27T22:14:55.828Z,1.45
2023-02-27T22:17:25.468Z,1.50
2023-02-27T22:19:55.381Z,1.61
2023-02-27T22:22:25.146Z,1.40
2023-02-27T22:24:55.187Z,1.52
2023-02-27T22:27:24.990Z,1.54
2023-02-27T22:29:56.357Z,1.51
2023-02-27T22:32:25.925Z,1.46
2023-02-27T22:34:57.228Z,1.21
2023-02-27T22:37:26.981Z,1.11
2023-02-27T22:39:56.803Z,1.33
2023-02-27T22:42:26.519Z,1.12
2023-02-27T22:44:56.687Z,1.04
2023-02-27T22:47:29.285Z,1.19
2023-02-27T22:49:59.140Z,1.21
2023-02-27T22:52:28.936Z,1.17
2023-02-27T22:54:58.668Z,1.21
2023-02-27T22:57:28.532Z,1.15
2023-02-27T22:59:58.299Z,0.97
2023-02-27T23:02:29.655Z,0.84
2023-02-27T23:04:59.540Z,0.92
2023-02-27T23:07:29.598Z,0.80
2023-02-27T23:09:59.690Z,1.05
2023-02-27T23:12:30.112Z,1.14
2023-02-27T23:14:59.982Z,1.00
2023-02-27T23:17:29.830Z,0.93
2023-02-27T23:19:59.957Z,0.93
2023-02-27T23:22:31.448Z,0.89
2023-02-27T23:25:02.866Z,0.91
2023-02-27T23:27:32.807Z,0.82
2023-02-27T23:30:02.905Z,0.85
2023-02-27T23:32:34.402Z,0.78
2023-02-27T23:35:04.294Z,0.78
2023-02-27T23:37:34.160Z,0.88
2023-02-27T23:40:09.434Z,0.80
2023-02-27T23:42:39.198Z,0.70
2023-02-27T23:45:12.603Z,0.72
2023-02-27T23:47:43.109Z,0.64
2023-02-27T23:50:14.424Z,0.63
2023-02-27T23:52:45.968Z,0.64
2023-02-27T23:55:16.259Z,0.66
2023-02-27T23:57:46.594Z,0.67
